KMKS

Berkeley County Airport

Moncks Corner, South Carolina, USA
METAR KMKS 172055Z AUTO 00000KT 10SM CLR 16/00 A3022 RMK AO2
Observed Flight Rules
Dec-17 @ 20:55 UTC (23 minutes ago) Visual Flight Rules
Wind Visibility Clouds
Calm 10 miles
  • Clear skies
Temperatures Readings
Current 16°C / 61°F
Dewpoint 0°C / 32°F
Humidity 34%
Altimeter 30.22" Hg
Pressure 1023 hPa
Elevation 23
METAR KMKS 172055Z AUTO 00000KT 10SM CLR 16/00 A3022 RMK AO2
Observed Flight Rules
Dec-17 @ 20:55 UTC
(23 minutes ago)
VFR
Wind Visibility
Calm 10 miles
Clouds
  • Clear skies
Temperature Dewpoint
16°C / 61°F 0°C / 32°F
Humidity Altimeter Pressure
34% 30.22" Hg 1023 hPa